Time;durP1;ratioP1;P1;durP2;ratioP2;P2;SDS_P1;SDS_P2;PMS_P1;PMS_P2;Temp;Humidity;BMP_temperature;BMP_pressure;BME280_temperature;BME280_humidity;BME280_pressure;Samples;Min_cycle;Max_cycle;Signal;HPM_P1;HPM_P2
2023/09/12 00:02:06;;;;;;;13.57;9.77;;;24.90;49.70;;;;;;20550;6767;307327;-76
2023/09/12 00:04:41;;;;;;;9.47;8.67;;;24.90;49.70;;;;;;20783;6767;118470;-75
2023/09/12 00:07:17;;;;;;;9.57;8.60;;;24.60;50.00;;;;;;20696;6767;117953;-76
2023/09/12 00:09:52;;;;;;;11.50;9.73;;;24.20;50.80;;;;;;20569;6767;276199;-76
2023/09/12 00:12:28;;;;;;;11.57;10.20;;;24.30;51.60;;;;;;20573;6767;307378;-75
2023/09/12 00:15:04;;;;;;;10.07;9.20;;;24.30;51.50;;;;;;20780;6767;117262;-77
2023/09/12 00:17:40;;;;;;;10.53;9.47;;;24.30;51.10;;;;;;20630;6767;122724;-76
2023/09/12 00:20:16;;;;;;;9.83;8.87;;;23.90;51.70;;;;;;20583;6753;277742;-76
2023/09/12 00:22:54;;;;;;;11.10;9.40;;;24.10;51.80;;;;;;20585;6763;335582;-75
2023/09/12 00:25:27;;;;;;;10.20;9.18;;;24.40;51.00;;;;;;20578;6763;341015;-75
2023/09/12 00:28:03;;;;;;;9.47;8.53;;;24.80;50.20;;;;;;20425;6763;313669;-76
2023/09/12 00:30:39;;;;;;;11.37;8.13;;;24.80;50.00;;;;;;20800;6761;117848;-76
2023/09/12 00:33:15;;;;;;;12.43;8.90;;;24.50;50.40;;;;;;20588;6761;306870;-76
2023/09/12 00:35:50;;;;;;;9.93;8.63;;;24.50;49.90;;;;;;20751;6777;117388;-77
2023/09/12 00:38:26;;;;;;;9.27;8.40;;;24.30;50.40;;;;;;20353;6777;310372;-75
2023/09/12 00:41:02;;;;;;;9.85;8.52;;;24.60;50.20;;;;;;20583;6762;310288;-79
2023/09/12 00:43:37;;;;;;;10.67;7.40;;;24.60;49.50;;;;;;20802;6762;116995;-76
2023/09/12 00:46:18;;;;;;;8.60;7.90;;;24.40;49.80;;;;;;20766;6762;119184;-75
2023/09/12 00:48:57;;;;;;;11.47;7.80;;;24.00;50.30;;;;;;20740;6790;118813;-76
2023/09/12 00:51:29;;;;;;;8.37;7.63;;;23.80;50.80;;;;;;20829;6752;120188;-75
2023/09/12 00:54:05;;;;;;;10.67;8.17;;;23.50;51.00;;;;;;20697;6786;117574;-79
2023/09/12 00:56:40;;;;;;;9.87;8.97;;;23.30;51.30;;;;;;20474;6787;309659;-75
2023/09/12 00:59:16;;;;;;;12.60;9.30;;;23.60;51.20;;;;;;20557;6772;311338;-75
2023/09/12 01:01:51;;;;;;;10.87;9.60;;;24.00;50.80;;;;;;20561;6772;278208;-77
2023/09/12 01:04:28;;;;;;;10.17;9.17;;;24.50;50.00;;;;;;20574;6762;306170;-76
2023/09/12 01:07:04;;;;;;;11.03;9.60;;;24.40;49.90;;;;;;20514;6764;278725;-75
2023/09/12 01:09:40;;;;;;;10.07;9.07;;;24.60;50.00;;;;;;20786;6767;117660;-75
2023/09/12 01:12:14;;;;;;;8.63;7.93;;;24.30;50.50;;;;;;20728;6775;117974;-79
2023/09/12 01:14:50;;;;;;;11.13;8.10;;;23.80;51.20;;;;;;20748;6775;122040;-78
2023/09/12 01:17:26;;;;;;;9.70;8.80;;;23.50;52.10;;;;;;20444;6773;308979;-77
2023/09/12 01:20:03;;;;;;;11.83;8.70;;;23.50;52.10;;;;;;20791;6757;121086;-77
2023/09/12 01:23:05;;;;;;;10.03;9.03;;;23.40;52.20;;;;;;20746;6778;118079;-77
2023/09/12 01:25:51;;;;;;;10.30;8.80;;;23.00;52.50;;;;;;20808;6757;117359;-80
2023/09/12 01:28:29;;;;;;;10.17;9.17;;;22.70;53.10;;;;;;20619;6757;118854;-76
2023/09/12 01:31:02;;;;;;;11.30;8.83;;;22.50;53.50;;;;;;20849;6745;117961;-77
2023/09/12 01:33:38;;;;;;;10.83;9.90;;;22.60;54.30;;;;;;20596;6760;277535;-77
2023/09/12 01:36:13;;;;;;;11.30;10.10;;;22.60;54.30;;;;;;20514;6777;286550;-79
2023/09/12 01:38:49;;;;;;;12.93;9.20;;;23.00;53.40;;;;;;20803;6761;123793;-77
2023/09/12 01:41:24;;;;;;;11.53;9.77;;;23.00;53.50;;;;;;20635;6745;300279;-76
2023/09/12 01:44:01;;;;;;;11.27;9.23;;;23.00;53.60;;;;;;20832;6745;117579;-78
2023/09/12 01:46:36;;;;;;;9.23;8.43;;;22.90;53.50;;;;;;20810;6745;117227;-79
2023/09/12 01:49:12;;;;;;;11.13;10.03;;;22.70;53.90;;;;;;20554;6770;309640;-79
2023/09/12 01:51:48;;;;;;;11.40;10.20;;;23.20;52.60;;;;;;20550;6770;336817;-83
2023/09/12 01:54:24;;;;;;;12.93;9.73;;;23.30;52.70;;;;;;20717;6782;117481;-79
2023/09/12 01:57:00;;;;;;;11.53;10.40;;;23.20;53.10;;;;;;20496;6775;279301;-80
2023/09/12 01:59:36;;;;;;;12.32;10.30;;;23.10;53.00;;;;;;20659;6741;275746;-78
2023/09/12 02:02:11;;;;;;;10.97;9.43;;;23.40;52.80;;;;;;20845;6741;117314;-77
2023/09/12 02:04:50;;;;;;;10.85;9.85;;;23.20;53.10;;;;;;20652;6741;305039;-79
2023/09/12 02:07:26;;;;;;;9.90;9.10;;;23.00;53.00;;;;;;20650;6812;117231;-80
2023/09/12 02:10:04;;;;;;;11.23;10.20;;;23.00;53.00;;;;;;20580;6760;303972;-79
2023/09/12 02:12:38;;;;;;;12.30;11.00;;;23.10;53.10;;;;;;20595;6760;305863;-77
2023/09/12 02:15:14;;;;;;;12.67;11.57;;;23.30;52.80;;;;;;20598;6760;280615;-78
2023/09/12 02:17:52;;;;;;;11.80;10.70;;;23.40;52.50;;;;;;20453;6760;309763;-76
2023/09/12 02:20:28;;;;;;;12.65;11.35;;;23.50;52.50;;;;;;20590;6760;336639;-79
2023/09/12 02:23:04;;;;;;;12.20;10.23;;;23.30;52.70;;;;;;20855;6745;117379;-80
2023/09/12 02:25:41;;;;;;;11.60;10.47;;;23.30;52.60;;;;;;20803;6760;118329;-77
2023/09/12 02:28:16;;;;;;;11.37;9.97;;;22.90;53.40;;;;;;20665;6745;124266;-79
2023/09/12 02:30:52;;;;;;;12.70;11.50;;;22.50;54.00;;;;;;20536;6777;306792;-76
2023/09/12 02:33:27;;;;;;;12.60;11.40;;;22.70;53.90;;;;;;20480;6794;307947;-78
2023/09/12 03:54:10;;;;;;;10.27;9.40;;;20.80;57.80;;;;;;20947;6514;90764;-74
2023/09/12 03:56:36;;;;;;;11.57;10.57;;;20.70;57.70;;;;;;20606;6797;340121;-73
2023/09/12 03:59:02;;;;;;;10.27;9.32;;;21.10;57.10;;;;;;20711;6838;118985;-73
2023/09/12 04:01:27;;;;;;;10.37;9.43;;;21.20;56.80;;;;;;20724;6838;118384;-73
2023/09/12 04:03:53;;;;;;;10.37;9.37;;;21.10;56.70;;;;;;20721;6838;117290;-74
2023/09/12 04:06:18;;;;;;;11.63;10.63;;;21.00;56.80;;;;;;20500;6838;289051;-74
2023/09/12 04:08:44;;;;;;;10.63;9.17;;;21.30;56.20;;;;;;20730;6838;118054;-74
2023/09/12 04:11:11;;;;;;;10.67;9.57;;;21.30;56.10;;;;;;20727;6838;118021;-75
2023/09/12 04:13:36;;;;;;;11.77;10.60;;;21.20;56.50;;;;;;20522;6838;279533;-75
2023/09/12 04:16:02;;;;;;;12.25;11.05;;;21.40;56.10;;;;;;20504;6838;309044;-74
2023/09/12 04:18:28;;;;;;;11.47;10.47;;;21.70;55.60;;;;;;20457;6838;303243;-75
2023/09/12 04:20:57;;;;;;;11.10;10.20;;;22.00;54.60;;;;;;20355;6838;319811;-74
2023/09/12 04:23:19;;;;;;;11.90;10.80;;;22.20;54.00;;;;;;20507;6838;308623;-74
2023/09/12 04:25:44;;;;;;;10.40;9.40;;;22.40;53.50;;;;;;20701;6838;117762;-73
2023/09/12 04:28:11;;;;;;;11.98;10.90;;;22.30;53.30;;;;;;20460;6851;280026;-75
2023/09/12 04:30:40;;;;;;;11.17;10.07;;;22.20;53.30;;;;;;20684;6851;120812;-77
2023/09/12 04:33:05;;;;;;;10.33;9.43;;;22.10;53.80;;;;;;20678;6851;118412;-77
2023/09/12 04:35:36;;;;;;;10.23;9.33;;;21.50;55.00;;;;;;20734;6831;117719;-77
2023/09/12 04:38:02;;;;;;;10.80;9.77;;;21.50;54.90;;;;;;20764;6819;117927;-75
2023/09/12 04:40:27;;;;;;;11.63;10.53;;;21.30;55.30;;;;;;20526;6833;278664;-75
2023/09/12 04:42:53;;;;;;;11.57;10.60;;;21.60;54.90;;;;;;20593;6816;278078;-75
2023/09/12 04:45:18;;;;;;;11.60;10.40;;;21.90;54.10;;;;;;20581;6816;344064;-74
2023/09/12 04:47:44;;;;;;;10.27;9.20;;;22.20;54.00;;;;;;20796;6816;115009;-77
2023/09/12 04:50:11;;;;;;;12.47;9.37;;;22.10;54.10;;;;;;20787;6816;118705;-73
2023/09/12 04:52:35;;;;;;;11.50;10.43;;;21.80;54.50;;;;;;20593;6816;277183;-74
2023/09/12 04:55:01;;;;;;;11.87;10.87;;;21.80;53.80;;;;;;20583;6816;336600;-75
2023/09/12 04:57:30;;;;;;;10.90;9.80;;;22.10;53.70;;;;;;20777;6816;120342;-75
2023/09/12 04:59:52;;;;;;;10.63;9.57;;;21.90;53.90;;;;;;20771;6816;117829;-75
2023/09/12 05:02:18;;;;;;;11.50;10.47;;;21.50;54.40;;;;;;20546;6816;312117;-75
2023/09/12 05:04:44;;;;;;;10.00;9.13;;;21.60;54.30;;;;;;20794;6814;117443;-75
2023/09/12 05:07:09;;;;;;;12.00;11.00;;;21.50;54.60;;;;;;20589;6816;306802;-74
2023/09/12 05:09:35;;;;;;;11.90;10.77;;;21.60;54.50;;;;;;20493;6845;297398;-75
2023/09/12 05:12:00;;;;;;;12.13;11.12;;;21.80;53.60;;;;;;20557;6818;336638;-75
2023/09/12 05:14:26;;;;;;;10.83;10.03;;;22.10;53.30;;;;;;20769;6818;118656;-77
2023/09/12 05:16:53;;;;;;;11.50;10.40;;;21.90;53.70;;;;;;20578;6818;277530;-75
2023/09/12 05:19:17;;;;;;;10.00;9.30;;;21.90;53.80;;;;;;20782;6818;117610;-77
2023/09/12 05:21:42;;;;;;;9.18;8.38;;;21.80;54.00;;;;;;20730;6833;117148;-74
2023/09/12 05:24:08;;;;;;;11.23;10.13;;;21.60;54.50;;;;;;20566;6816;306911;-75
2023/09/12 05:26:34;;;;;;;11.17;10.07;;;21.80;55.80;;;;;;20555;6816;336999;-73
2023/09/12 05:28:59;;;;;;;10.93;9.90;;;22.30;54.00;;;;;;20516;6816;281070;-73
2023/09/12 05:31:25;;;;;;;10.88;9.88;;;22.70;53.00;;;;;;20505;6816;279684;-73
2023/09/12 05:33:50;;;;;;;12.65;8.88;;;23.10;52.10;;;;;;20749;6816;118799;-73
2023/09/12 05:36:16;;;;;;;10.68;9.77;;;23.00;52.30;;;;;;20479;6833;311001;-73
2023/09/12 05:38:42;;;;;;;9.30;8.50;;;23.00;51.80;;;;;;20745;6816;117808;-74
2023/09/12 05:41:07;;;;;;;10.55;9.55;;;22.90;52.20;;;;;;20509;6816;310109;-74
2023/09/12 05:43:33;;;;;;;9.80;8.90;;;23.00;52.10;;;;;;20732;6816;117257;-73
2023/09/12 05:45:59;;;;;;;9.70;8.77;;;22.90;52.30;;;;;;20756;6816;119381;-74
2023/09/12 05:48:25;;;;;;;11.07;9.80;;;22.90;52.40;;;;;;20497;6833;279714;-74
2023/09/12 05:50:51;;;;;;;10.63;9.77;;;22.90;52.30;;;;;;20572;6816;307422;-73
2023/09/12 05:53:17;;;;;;;10.40;9.57;;;23.50;51.20;;;;;;20585;6816;307929;-73
2023/09/12 05:55:42;;;;;;;9.77;8.37;;;23.50;51.20;;;;;;20781;6816;117578;-74
2023/09/12 05:58:09;;;;;;;11.90;7.80;;;23.30;52.20;;;;;;20720;6833;119905;-73
2023/09/12 06:00:34;;;;;;;10.55;9.60;;;23.30;52.10;;;;;;20569;6816;277608;-73
2023/09/12 06:03:01;;;;;;;9.30;8.27;;;23.70;52.50;;;;;;20741;6831;117922;-73
2023/09/12 06:05:26;;;;;;;8.07;7.57;;;23.70;52.00;;;;;;20752;6831;118309;-76
2023/09/12 06:07:55;;;;;;;10.63;9.63;;;23.80;52.30;;;;;;20537;6831;337701;-77
2023/09/12 06:10:21;;;;;;;9.20;8.30;;;24.30;51.30;;;;;;20797;6816;117841;-73
2023/09/12 06:12:46;;;;;;;9.67;8.67;;;24.30;51.30;;;;;;20786;6816;117164;-73
2023/09/12 06:15:12;;;;;;;9.10;8.23;;;24.30;51.30;;;;;;20780;6814;117609;-73
2023/09/12 06:17:38;;;;;;;8.70;8.10;;;24.30;51.50;;;;;;20784;6815;120198;-72
2023/09/12 06:20:06;;;;;;;8.88;8.05;;;24.30;51.50;;;;;;20772;6815;117273;-74
2023/09/12 06:22:29;;;;;;;10.30;7.83;;;24.30;51.30;;;;;;20790;6816;117271;-73
2023/09/12 06:24:55;;;;;;;11.30;9.70;;;24.30;51.30;;;;;;20588;6816;308705;-72
2023/09/12 06:27:20;;;;;;;9.30;8.70;;;24.60;50.70;;;;;;20581;6815;335795;-74
2023/09/12 06:29:48;;;;;;;8.63;7.73;;;24.90;50.10;;;;;;20810;6816;116984;-74
2023/09/12 06:32:11;;;;;;;11.00;8.30;;;24.90;50.10;;;;;;20786;6816;118610;-74
2023/09/12 06:34:37;;;;;;;9.37;7.80;;;24.60;50.40;;;;;;20813;6816;121169;-74
2023/09/12 06:37:02;;;;;;;9.90;9.00;;;24.40;50.70;;;;;;20591;6816;282817;-74
2023/09/12 06:39:28;;;;;;;10.53;9.73;;;24.60;50.00;;;;;;20584;6816;307600;-75
2023/09/12 06:41:54;;;;;;;10.15;9.32;;;25.20;49.10;;;;;;20590;6816;281728;-76
2023/09/12 06:44:20;;;;;;;9.98;9.18;;;25.10;49.00;;;;;;20446;6816;278823;-75
2023/09/12 06:46:46;;;;;;;9.40;8.25;;;25.30;48.80;;;;;;20797;6816;118015;-73
2023/09/12 06:49:11;;;;;;;10.32;9.30;;;25.10;49.10;;;;;;20598;6816;277967;-71
2023/09/12 06:51:37;;;;;;;9.23;8.50;;;25.10;49.30;;;;;;20809;6816;117797;-72
2023/09/12 06:54:03;;;;;;;8.50;7.73;;;24.50;50.10;;;;;;20796;6816;118604;-72
2023/09/12 06:56:29;;;;;;;9.23;8.30;;;24.50;50.10;;;;;;20807;6816;123197;-72
2023/09/12 06:58:55;;;;;;;12.73;9.48;;;24.20;50.60;;;;;;20586;6816;342111;-72
2023/09/12 07:01:20;;;;;;;9.75;8.82;;;24.40;50.70;;;;;;20798;6816;118956;-71
2023/09/12 07:03:46;;;;;;;9.50;8.60;;;24.40;50.60;;;;;;20799;6816;117065;-72
2023/09/12 07:06:11;;;;;;;10.83;9.50;;;24.30;50.90;;;;;;20566;6816;307563;-72
2023/09/12 07:08:37;;;;;;;13.10;9.70;;;24.50;50.50;;;;;;20592;6816;336603;-71
2023/09/12 07:11:05;;;;;;;11.20;9.07;;;24.80;50.00;;;;;;20803;6816;117373;-74
2023/09/12 07:13:28;;;;;;;10.67;9.00;;;24.60;49.90;;;;;;20782;6816;117794;-73
2023/09/12 07:15:53;;;;;;;10.60;9.53;;;24.30;50.30;;;;;;20584;6816;305557;-72
2023/09/12 07:18:20;;;;;;;10.43;9.43;;;24.50;50.40;;;;;;20575;6816;283059;-76
2023/09/12 07:20:45;;;;;;;10.43;9.50;;;24.80;50.00;;;;;;20803;6816;124054;-71
2023/09/12 07:23:11;;;;;;;10.45;9.45;;;24.80;50.00;;;;;;20587;6816;311201;-72
2023/09/12 07:25:40;;;;;;;10.50;9.37;;;25.00;49.80;;;;;;20594;6816;311063;-72
2023/09/12 07:28:05;;;;;;;9.97;9.07;;;25.20;49.40;;;;;;20773;6814;121329;-71
2023/09/12 07:30:31;;;;;;;9.00;8.37;;;25.00;49.60;;;;;;20803;6815;117522;-73
2023/09/12 07:32:56;;;;;;;11.00;10.07;;;24.60;50.20;;;;;;20585;6815;310737;-72
2023/09/12 07:35:23;;;;;;;12.33;9.07;;;24.70;50.50;;;;;;20805;6816;117847;-72
2023/09/12 07:37:47;;;;;;;10.13;9.23;;;24.60;50.60;;;;;;20587;6816;279869;-76
2023/09/12 07:40:13;;;;;;;10.55;9.48;;;24.80;50.60;;;;;;20576;6816;410182;-72
2023/09/12 07:42:39;;;;;;;10.00;9.10;;;25.20;50.40;;;;;;20575;6816;337368;-72
2023/09/12 07:45:04;;;;;;;10.68;9.68;;;25.60;49.70;;;;;;20564;6816;297618;-72
2023/09/12 07:47:30;;;;;;;10.73;9.53;;;25.90;48.90;;;;;;20600;6816;280387;-72
2023/09/12 07:49:56;;;;;;;10.60;9.55;;;26.20;48.30;;;;;;20570;6816;278874;-73
2023/09/12 07:52:22;;;;;;;10.53;9.13;;;26.70;47.30;;;;;;20592;6816;306943;-72
2023/09/12 07:54:47;;;;;;;10.07;9.07;;;26.70;47.30;;;;;;20584;6816;307057;-72
2023/09/12 07:57:13;;;;;;;9.67;8.83;;;27.00;46.80;;;;;;20796;6816;117309;-73
2023/09/12 07:59:38;;;;;;;9.80;9.00;;;27.00;47.00;;;;;;20588;6816;325133;-72
2023/09/12 08:02:04;;;;;;;11.05;9.23;;;27.10;46.60;;;;;;20576;6816;306870;-72
2023/09/12 08:04:30;;;;;;;9.90;8.93;;;27.40;46.50;;;;;;20585;6816;336045;-72
2023/09/12 08:06:56;;;;;;;10.10;9.07;;;27.90;45.70;;;;;;20598;6816;279939;-73
2023/09/12 08:09:21;;;;;;;10.07;9.23;;;27.90;45.70;;;;;;20593;6816;277200;-72
2023/09/12 08:11:47;;;;;;;11.17;9.60;;;28.00;45.30;;;;;;20596;6816;277669;-72
2023/09/12 08:14:13;;;;;;;9.63;8.83;;;28.10;44.90;;;;;;20800;6816;117830;-72
2023/09/12 08:16:38;;;;;;;11.05;9.50;;;27.80;45.60;;;;;;20602;6816;277095;-72
2023/09/12 08:19:04;;;;;;;9.80;8.77;;;27.80;45.40;;;;;;20603;6816;307122;-72
2023/09/12 08:21:29;;;;;;;11.70;9.47;;;27.90;45.30;;;;;;20821;6816;120003;-72
2023/09/12 08:23:55;;;;;;;10.48;9.40;;;27.80;45.60;;;;;;20580;6816;305644;-73
2023/09/12 08:26:20;;;;;;;10.23;9.17;;;27.80;45.00;;;;;;20803;6816;117468;-72
2023/09/12 08:28:46;;;;;;;11.10;9.93;;;27.60;45.10;;;;;;20587;6816;307060;-72
2023/09/12 08:31:12;;;;;;;10.90;9.80;;;27.70;44.50;;;;;;20803;6816;117232;-72
2023/09/12 08:33:37;;;;;;;9.53;8.77;;;27.60;44.80;;;;;;20803;6816;117690;-74
2023/09/12 08:36:03;;;;;;;9.90;9.03;;;27.40;45.40;;;;;;20778;6816;117169;-74
2023/09/12 08:38:28;;;;;;;10.13;9.33;;;27.30;45.70;;;;;;20798;6814;117467;-74
2023/09/12 08:40:54;;;;;;;10.77;9.93;;;27.20;45.80;;;;;;20592;6815;280789;-74
2023/09/12 08:43:19;;;;;;;10.98;10.07;;;27.40;44.90;;;;;;20596;6815;277560;-73
2023/09/12 08:45:45;;;;;;;11.57;9.27;;;27.70;44.50;;;;;;20802;6816;117455;-74
2023/09/12 08:48:11;;;;;;;10.63;9.45;;;27.60;44.70;;;;;;20569;6816;315550;-74
2023/09/12 08:50:37;;;;;;;9.70;8.85;;;27.90;45.00;;;;;;20807;6816;117401;-74
2023/09/12 08:53:06;;;;;;;9.80;9.00;;;27.90;45.00;;;;;;20802;6816;117461;-74
2023/09/12 08:55:33;;;;;;;10.13;9.33;;;27.90;44.80;;;;;;20587;6816;309922;-74
2023/09/12 08:57:57;;;;;;;10.20;9.23;;;28.30;44.20;;;;;;20771;6816;117842;-75
2023/09/12 09:00:22;;;;;;;10.60;9.50;;;28.50;44.00;;;;;;20798;6816;123260;-75
2023/09/12 09:02:50;;;;;;;10.37;9.23;;;28.80;43.70;;;;;;20588;6816;311564;-75
2023/09/12 09:05:16;;;;;;;9.63;8.93;;;28.80;43.70;;;;;;20580;6816;310670;-75
2023/09/12 09:07:41;;;;;;;10.47;9.57;;;29.40;42.80;;;;;;20584;6816;277518;-74
2023/09/12 09:10:07;;;;;;;9.83;8.93;;;29.90;41.90;;;;;;20560;6816;278044;-74
2023/09/12 09:12:33;;;;;;;9.70;8.97;;;30.30;41.50;;;;;;20577;6816;280386;-74
2023/09/12 09:14:59;;;;;;;9.90;9.13;;;30.70;40.50;;;;;;20578;6816;337853;-74
2023/09/12 09:17:25;;;;;;;10.07;9.15;;;31.10;40.20;;;;;;20601;6816;336675;-77
2023/09/12 09:19:50;;;;;;;8.97;8.03;;;31.40;39.90;;;;;;20824;6816;117761;-77
2023/09/12 09:22:16;;;;;;;9.88;9.13;;;31.40;40.30;;;;;;20588;6816;307559;-77
2023/09/12 09:24:41;;;;;;;8.90;8.17;;;31.50;39.30;;;;;;20813;6816;117087;-76
2023/09/12 09:27:09;;;;;;;9.60;8.80;;;31.40;40.30;;;;;;20797;6816;119045;-76
2023/09/12 09:29:48;;;;;;;9.23;8.52;;;31.30;40.30;;;;;;20589;6816;336098;-77
2023/09/12 09:32:21;;;;;;;9.53;8.73;;;31.60;39.70;;;;;;20584;6816;278121;-77
2023/09/12 09:34:46;;;;;;;9.60;8.80;;;32.00;39.10;;;;;;20592;6816;289757;-77
2023/09/12 09:37:12;;;;;;;8.43;7.83;;;32.40;38.70;;;;;;20808;6816;117182;-77
2023/09/12 09:39:37;;;;;;;9.30;8.70;;;32.40;39.00;;;;;;20805;6816;117567;-78
2023/09/12 09:42:04;;;;;;;9.82;9.02;;;32.30;39.20;;;;;;20572;6816;281704;-78
2023/09/12 09:44:31;;;;;;;10.13;8.70;;;32.50;38.60;;;;;;20789;6816;118919;-77
2023/09/12 09:47:02;;;;;;;8.87;8.13;;;32.50;38.60;;;;;;20812;6816;117324;-78
2023/09/12 09:49:35;;;;;;;9.27;8.38;;;32.70;38.20;;;;;;20599;6816;308320;-78
2023/09/12 09:51:59;;;;;;;9.17;8.57;;;32.70;38.10;;;;;;20766;6815;146792;-78
2023/09/12 09:54:24;;;;;;;9.27;8.57;;;32.70;38.10;;;;;;20804;6815;117726;-78
2023/09/12 09:56:50;;;;;;;9.50;8.70;;;32.70;38.10;;;;;;20552;6816;309008;-76
2023/09/12 09:59:18;;;;;;;8.73;8.07;;;32.80;37.60;;;;;;20783;6816;117551;-75
2023/09/12 10:01:45;;;;;;;9.30;8.52;;;32.90;37.60;;;;;;20586;6816;307061;-75
2023/09/12 10:04:11;;;;;;;8.77;8.03;;;33.10;36.40;;;;;;20574;6816;306891;-77
2023/09/12 10:06:38;;;;;;;8.55;7.87;;;33.70;36.00;;;;;;20607;6816;281960;-78
2023/09/12 10:09:05;;;;;;;8.53;7.83;;;33.60;35.80;;;;;;20598;6816;311440;-75
2023/09/12 10:11:29;;;;;;;8.60;7.83;;;33.90;35.80;;;;;;20739;6816;117171;-77
2023/09/12 10:13:55;;;;;;;8.47;7.87;;;33.80;36.10;;;;;;20797;6816;117059;-78
2023/09/12 10:16:25;;;;;;;8.40;7.70;;;33.80;36.10;;;;;;20433;6816;277257;-77
2023/09/12 10:19:10;;;;;;;8.53;7.80;;;33.90;34.90;;;;;;20741;6816;117186;-76
2023/09/12 10:21:36;;;;;;;8.37;7.83;;;33.80;35.40;;;;;;20788;6816;117080;-79
2023/09/12 10:24:01;;;;;;;8.07;7.37;;;33.70;35.90;;;;;;20478;6816;316421;-77
2023/09/12 10:26:27;;;;;;;7.87;7.37;;;33.90;34.50;;;;;;20763;6816;121241;-77
2023/09/12 10:28:53;;;;;;;7.80;7.10;;;34.00;35.10;;;;;;20787;6816;117192;-75
2023/09/12 10:31:18;;;;;;;7.90;7.30;;;33.90;34.90;;;;;;20778;6816;117710;-76
2023/09/12 10:33:46;;;;;;;7.73;7.13;;;33.80;34.90;;;;;;20708;6816;117493;-76
2023/09/12 10:36:11;;;;;;;7.70;7.10;;;33.80;35.50;;;;;;20472;6816;279555;-72
2023/09/12 10:38:40;;;;;;;7.60;7.00;;;34.10;34.50;;;;;;20505;6816;303533;-74
2023/09/12 10:41:06;;;;;;;7.57;6.90;;;34.50;33.90;;;;;;20719;6816;117250;-75
2023/09/12 10:43:33;;;;;;;7.40;6.70;;;34.50;33.60;;;;;;20750;6816;119294;-74
2023/09/12 10:45:57;;;;;;;7.57;6.90;;;34.40;33.70;;;;;;20511;6816;308635;-76
2023/09/12 10:48:22;;;;;;;7.50;6.77;;;34.60;32.70;;;;;;20537;6816;307090;-74
2023/09/12 10:50:49;;;;;;;6.90;6.30;;;34.80;31.80;;;;;;20777;6816;118152;-74
2023/09/12 10:53:14;;;;;;;6.57;6.17;;;34.80;31.30;;;;;;20591;6816;307088;-75
2023/09/12 10:55:40;;;;;;;6.93;6.20;;;34.90;31.50;;;;;;20589;6816;336012;-74
2023/09/12 10:58:05;;;;;;;6.80;6.17;;;35.10;31.40;;;;;;20582;6816;302114;-75
2023/09/12 11:00:37;;;;;;;7.50;6.68;;;35.20;31.50;;;;;;20577;6816;294718;-74
2023/09/12 11:03:10;;;;;;;7.43;6.47;;;35.40;31.30;;;;;;20797;6814;116916;-74
2023/09/12 11:05:36;;;;;;;7.00;5.97;;;35.30;31.10;;;;;;20355;6815;123247;-74
2023/09/12 11:08:04;;;;;;;7.00;6.40;;;35.00;31.60;;;;;;20785;6816;117512;-74
2023/09/12 11:10:31;;;;;;;7.57;6.90;;;34.80;31.70;;;;;;20584;6816;337528;-74
2023/09/12 11:12:56;;;;;;;6.90;6.50;;;34.90;30.80;;;;;;20789;6816;118170;-80
2023/09/12 11:15:21;;;;;;;6.73;5.80;;;35.00;31.00;;;;;;20791;6816;117048;-74
2023/09/12 11:17:46;;;;;;;7.03;6.63;;;34.80;31.20;;;;;;20796;6816;117223;-74
2023/09/12 11:20:12;;;;;;;7.20;6.50;;;34.60;31.60;;;;;;20796;6816;117689;-74
2023/09/12 11:22:44;;;;;;;7.23;6.33;;;34.50;31.90;;;;;;20808;6816;117335;-74
2023/09/12 11:25:17;;;;;;;6.63;6.10;;;34.40;32.20;;;;;;20592;6816;307002;-74
2023/09/12 11:27:45;;;;;;;6.10;5.60;;;34.60;30.00;;;;;;20797;6816;117295;-74
2023/09/12 11:30:11;;;;;;;6.73;6.23;;;34.70;30.40;;;;;;20781;6816;117721;-74
2023/09/12 11:32:36;;;;;;;6.73;6.23;;;34.70;30.60;;;;;;20592;6816;277945;-74
2023/09/12 11:35:07;;;;;;;7.00;6.30;;;34.80;29.50;;;;;;20797;6816;119894;-77
2023/09/12 11:37:33;;;;;;;6.97;6.27;;;34.80;29.90;;;;;;20793;6816;117615;-74
2023/09/12 11:39:58;;;;;;;7.17;6.47;;;34.70;30.00;;;;;;20577;6816;279574;-75
2023/09/12 11:42:25;;;;;;;6.23;5.73;;;34.90;29.70;;;;;;20791;6816;118829;-74
2023/09/12 11:44:49;;;;;;;6.68;6.22;;;35.00;29.70;;;;;;20806;6816;119236;-75
2023/09/12 11:47:14;;;;;;;5.87;5.50;;;34.80;29.30;;;;;;20799;6816;121295;-75
2023/09/12 11:49:40;;;;;;;5.97;5.53;;;34.70;29.50;;;;;;20806;6816;120385;-74
2023/09/12 11:52:13;;;;;;;6.40;5.90;;;34.50;29.90;;;;;;20573;6816;277760;-74
2023/09/12 11:54:38;;;;;;;6.27;5.97;;;34.70;29.30;;;;;;20585;6816;312423;-75
2023/09/12 11:57:05;;;;;;;5.97;5.57;;;35.00;29.00;;;;;;20794;6816;117179;-74
2023/09/12 11:59:31;;;;;;;6.70;6.17;;;35.10;28.90;;;;;;20801;6816;116997;-75
2023/09/12 12:01:56;;;;;;;6.27;5.73;;;34.90;29.00;;;;;;20776;6816;118291;-75
2023/09/12 12:04:22;;;;;;;6.65;6.10;;;34.80;29.00;;;;;;20599;6816;308095;-74
2023/09/12 12:06:47;;;;;;;6.37;5.97;;;34.80;29.30;;;;;;20799;6816;118396;-74
2023/09/12 12:09:14;;;;;;;5.90;5.60;;;34.80;29.70;;;;;;20810;6816;117151;-75
2023/09/12 12:11:41;;;;;;;6.87;6.47;;;34.70;29.90;;;;;;20598;6816;303148;-74
2023/09/12 12:14:15;;;;;;;7.00;6.50;;;34.70;28.40;;;;;;20588;6814;278040;-74
2023/09/12 12:16:41;;;;;;;6.67;6.27;;;34.90;28.40;;;;;;20597;6815;310427;-75
2023/09/12 12:19:08;;;;;;;6.70;6.00;;;35.20;29.30;;;;;;20577;6815;311928;-75
2023/09/12 12:21:33;;;;;;;6.43;6.03;;;35.40;28.30;;;;;;20800;6816;117299;-74
2023/09/12 12:24:01;;;;;;;6.65;6.15;;;35.30;28.70;;;;;;20573;6816;307097;-74
2023/09/12 12:26:26;;;;;;;6.50;6.00;;;35.40;28.70;;;;;;20592;6816;277744;-74
2023/09/12 12:28:52;;;;;;;6.60;6.20;;;35.50;29.10;;;;;;20599;6816;302120;-75
2023/09/12 12:31:17;;;;;;;6.63;6.23;;;35.70;29.40;;;;;;20597;6816;306908;-76
2023/09/12 12:33:54;;;;;;;7.00;6.47;;;35.80;28.50;;;;;;20813;6816;117161;-76
2023/09/12 12:36:19;;;;;;;7.00;6.33;;;35.70;28.80;;;;;;20747;6816;120289;-75
2023/09/12 12:38:48;;;;;;;7.20;6.65;;;35.40;29.20;;;;;;20562;6816;293958;-76
2023/09/12 12:41:16;;;;;;;6.70;6.30;;;35.40;28.60;;;;;;20591;6816;303102;-75
2023/09/12 12:43:43;;;;;;;6.97;6.47;;;35.50;28.60;;;;;;20780;6816;116999;-75
2023/09/12 12:46:14;;;;;;;7.25;6.68;;;35.50;28.60;;;;;;20565;6816;307101;-75
2023/09/12 12:48:38;;;;;;;6.53;6.12;;;35.50;28.70;;;;;;20544;6816;306072;-76
2023/09/12 12:51:16;;;;;;;7.30;6.63;;;35.50;28.70;;;;;;20803;6816;119140;-76
2023/09/12 12:53:39;;;;;;;6.70;6.20;;;35.50;29.30;;;;;;20582;6816;332684;-76
2023/09/12 12:56:06;;;;;;;6.93;6.53;;;35.50;29.20;;;;;;20776;6816;118892;-76
2023/09/12 12:58:31;;;;;;;6.70;6.10;;;35.40;29.20;;;;;;20806;6816;117257;-76
2023/09/12 13:00:57;;;;;;;6.83;5.80;;;35.20;29.70;;;;;;20808;6816;118341;-76
2023/09/12 13:03:23;;;;;;;6.50;6.00;;;35.10;28.20;;;;;;20591;6816;341532;-76
2023/09/12 13:05:49;;;;;;;6.67;5.73;;;35.00;28.20;;;;;;20800;6816;117834;-75
2023/09/12 13:08:15;;;;;;;6.53;5.93;;;34.90;28.40;;;;;;20570;6816;307919;-76
2023/09/12 13:10:42;;;;;;;6.17;5.77;;;35.00;28.50;;;;;;20596;6816;279403;-76
2023/09/12 13:13:06;;;;;;;6.83;6.13;;;35.10;27.90;;;;;;20801;6816;118203;-76
2023/09/12 13:15:32;;;;;;;6.30;5.90;;;34.90;28.20;;;;;;20591;6816;277493;-76
2023/09/12 13:17:57;;;;;;;6.53;6.13;;;34.80;28.20;;;;;;20788;6816;118369;-76
2023/09/12 13:20:23;;;;;;;6.43;5.93;;;34.60;28.60;;;;;;20587;6816;314363;-75
2023/09/12 13:22:48;;;;;;;6.50;6.00;;;34.60;28.50;;;;;;20780;6816;117439;-76
2023/09/12 13:25:14;;;;;;;6.50;6.10;;;34.40;28.80;;;;;;20572;6814;277619;-76
2023/09/12 13:27:40;;;;;;;6.57;6.17;;;34.40;28.90;;;;;;20784;6815;117049;-76
2023/09/12 13:30:06;;;;;;;6.80;6.30;;;34.40;28.60;;;;;;20553;6815;307368;-76
2023/09/12 13:32:33;;;;;;;6.33;6.03;;;34.50;28.80;;;;;;20755;6816;120752;-76
2023/09/12 13:34:57;;;;;;;6.23;5.93;;;34.50;29.00;;;;;;20722;6816;117947;-76
2023/09/12 13:37:22;;;;;;;6.43;6.00;;;34.30;28.80;;;;;;20789;6816;118926;-76
2023/09/12 13:39:51;;;;;;;6.75;6.25;;;34.10;29.00;;;;;;20523;6816;307635;-76
2023/09/12 13:42:14;;;;;;;6.87;6.37;;;34.30;28.90;;;;;;20711;6816;118908;-76
2023/09/12 13:44:39;;;;;;;6.70;6.30;;;34.30;29.00;;;;;;20535;6816;279433;-76
2023/09/12 13:47:06;;;;;;;6.50;6.05;;;34.50;28.40;;;;;;20541;6816;283123;-76
2023/09/12 13:49:31;;;;;;;7.00;6.40;;;34.70;28.30;;;;;;20554;6816;277537;-76
2023/09/12 13:51:57;;;;;;;5.83;5.53;;;35.00;28.00;;;;;;20751;6816;117343;-75
2023/09/12 13:54:22;;;;;;;6.67;6.27;;;34.80;28.00;;;;;;20581;6816;295851;-76